Aérodrome :
LOGIN :

S'inscrire | Disclaimer

   EN    FR    IT 

 










Légende :    VFR   VFR Marginal   IFR   IFR Intensif   IFR Très Intensif
Visi : 
Plafond : 
>= 8 km
>= 3000ft
5 à 8 km
1000 à 3000 ft
1500m à 5 km
500 à 1000 ft
800 à 1500m
200 à 500 ft
< 800m
< 200 ft
Symboles :   Orages  Brouillard  Fortes neiges  Fortes précipitations  Vent > 20 kt
SIGMETs :   Divers  Orages  Givrage  Turbulence  Onde Orograph.  Cendres Volcan.






- Altitude de l'aérodrome : 376 ft


LHKE - Kecskemét

DERNIER METAR :
  • 161415Z 22002KT 9999 SCT033 SCT040 BKN057 M01/M07 Q1018 RESN R12/01//95 NOSIG RMK BLU

METARs EXPIRÉS :
  • 161345Z 22004KT 9999 -SN SCT030 SCT040 BKN057 M01/M09 Q1018 R12/01//95 BECMG NSW RMK BLU
  • 161315Z 21006KT 170V230 9999 BKN040 BKN057 M01/M10 Q1018 R12/01//95 NOSIG RMK BLU
  • 161245Z 20004KT 9999 SCT045 BKN057 M01/M09 Q1019 R12/01//95 NOSIG RMK BLU
  • 161215Z 22002KT 9999 SCT043 SCT053 SCT200 M01/M10 Q1019 R12/01//95 NOSIG RMK BLU

TAF TAF LHKE
Valide du 16 à 15h jusqu'au 17 à 00h UTC


161415Z 1615/1624 25008KT 9999 FEW040 SCT083
TEMPO 1615/1619 8000 -SN SHSN SCT025 SCT050
BECMG 1619/1622 CAVOK



MET'MAP, la Météo Aéronautique d'un coup d'oeil ! - Copyright ORBIFLY Décembre 2007 - Disclaimer

ORBIFLY MET'MAP TEAM :

Programmation & Développement : Alexandra Zaïnal
Sur une idée originale de : Baudouin d'Aumeries
Assistance à la programmation : Marc-Olivier Méhu
Soutien technique & logistique : Manuel Goepfert

Contact : metmap@orbifly.com




SOURCES & CREDITS :

   NOAA